Time;durP1;ratioP1;P1;durP2;ratioP2;P2;SDS_P1;SDS_P2;PMS_P1;PMS_P2;Temp;Humidity;BMP_temperature;BMP_pressure;BME280_temperature;BME280_humidity;BME280_pressure;Samples;Min_cycle;Max_cycle;Signal;HPM_P1;HPM_P2
2020/12/17 00:01:20;;;;;;;1.67;0.93;;;;;;;2.23;100.00;98938.19;4868368;29;20039;-87
2020/12/17 00:04:23;;;;;;;0.57;0.55;;;;;;;2.25;100.00;98930.25;4868432;29;20045;-88
2020/12/17 00:07:26;;;;;;;7.22;1.20;;;;;;;2.23;100.00;98938.19;4868353;29;20073;-88
2020/12/17 00:10:28;;;;;;;1.08;0.88;;;;;;;2.40;100.00;98934.09;4868522;29;20048;-88
2020/12/17 00:13:32;;;;;;;3.22;0.93;;;;;;;2.47;100.00;98931.09;4868062;29;20043;-86
2020/12/17 00:16:35;;;;;;;4.72;1.67;;;;;;;2.41;100.00;98932.09;4867920;29;20048;-87
2020/12/17 00:19:38;;;;;;;2.03;0.82;;;;;;;2.39;100.00;98929.00;4867614;29;20052;-87
2020/12/17 00:22:41;;;;;;;4.30;1.15;;;;;;;2.35;100.00;98929.13;4868053;29;20195;-87
2020/12/17 00:25:44;;;;;;;5.03;1.02;;;;;;;2.31;100.00;98934.00;4868238;29;20045;-86
2020/12/17 00:28:46;;;;;;;1.48;0.98;;;;;;;2.49;100.00;98939.66;4868200;29;20160;-87
2020/12/17 00:31:52;;;;;;;1.15;0.52;;;;;;;2.63;100.00;98941.94;4867653;29;20048;-87
2020/12/17 00:34:55;;;;;;;0.73;0.73;;;;;;;2.57;100.00;98942.94;4867797;29;20036;-87
2020/12/17 00:37:58;;;;;;;12.00;2.53;;;;;;;2.51;100.00;98940.00;4867852;29;20041;-87
2020/12/17 00:41:03;;;;;;;6.80;1.13;;;;;;;2.43;100.00;98935.94;4860107;29;20191;-87
2020/12/17 00:44:06;;;;;;;0.57;0.50;;;;;;;2.31;100.00;98931.25;4860362;29;20145;-87
2020/12/17 00:47:09;;;;;;;2.80;1.52;;;;;;;2.29;100.00;98937.19;4862300;29;20061;-87
2020/12/17 00:50:12;;;;;;;1.98;1.05;;;;;;;2.26;100.00;98949.03;4852653;29;20061;-87
2020/12/17 00:53:15;;;;;;;1.25;1.15;;;;;;;2.15;100.00;98947.84;4863554;29;20101;-88
2020/12/17 00:56:18;;;;;;;2.38;1.25;;;;;;;2.11;100.00;98953.44;4852390;29;20133;-87
2020/12/17 00:59:21;;;;;;;0.17;0.13;;;;;;;2.12;100.00;98954.22;4863178;29;20080;-87
2020/12/17 01:02:24;;;;;;;1.27;0.90;;;;;;;2.07;100.00;98947.31;4863803;29;20070;-88
2020/12/17 01:05:26;;;;;;;0.55;0.55;;;;;;;2.13;100.00;98959.28;4852253;29;20052;-86
2020/12/17 01:08:29;;;;;;;4.30;1.27;;;;;;;2.12;100.00;98954.22;4852345;29;20052;-87
2020/12/17 01:11:32;;;;;;;6.30;1.63;;;;;;;2.17;100.00;98954.44;4862200;29;20090;-87
2020/12/17 01:14:36;;;;;;;3.53;1.13;;;;;;;2.24;100.00;98956.19;4851838;29;20049;-87
2020/12/17 01:17:39;;;;;;;1.48;1.15;;;;;;;2.32;100.00;98945.75;4852110;29;20402;-87
2020/12/17 01:20:48;;;;;;;5.32;2.25;;;;;;;2.47;100.00;98946.81;4852099;29;20105;-87
2020/12/17 01:23:51;;;;;;;3.85;1.23;;;;;;;2.52;100.00;98949.75;4852210;29;20052;-87
2020/12/17 01:26:56;;;;;;;1.40;0.85;;;;;;;2.47;100.00;98953.06;4851835;29;20517;-87
2020/12/17 01:29:59;;;;;;;6.47;1.45;;;;;;;2.45;100.00;98944.50;4851621;29;20066;-87
2020/12/17 01:33:02;;;;;;;4.75;0.75;;;;;;;2.41;100.00;98943.84;4851987;29;20124;-88
2020/12/17 01:36:11;;;;;;;6.10;1.65;;;;;;;2.41;100.00;98952.09;4863269;29;20045;-87
2020/12/17 01:39:14;;;;;;;2.03;0.90;;;;;;;2.42;100.00;98959.13;4859402;29;20105;-88
2020/12/17 01:42:17;;;;;;;5.53;1.27;;;;;;;2.40;100.00;98963.53;4870297;29;20577;-87
2020/12/17 01:45:20;;;;;;;13.05;1.30;;;;;;;2.45;100.00;98960.97;4870069;29;20044;-87
2020/12/17 01:48:24;;;;;;;2.67;1.52;;;;;;;2.52;100.00;98966.25;4870099;29;20052;-87
2020/12/17 01:51:28;;;;;;;1.45;0.77;;;;;;;2.59;100.00;98976.25;4869880;29;20585;-87
2020/12/17 01:54:31;;;;;;;3.17;1.55;;;;;;;2.65;100.00;98977.97;4869920;29;20123;-87
2020/12/17 01:57:35;;;;;;;1.33;0.85;;;;;;;2.72;100.00;98980.50;4869160;29;20047;-87
2020/12/17 02:00:38;;;;;;;8.23;1.45;;;;;;;2.82;100.00;98984.88;4870042;29;20101;-87
2020/12/17 02:03:41;;;;;;;5.07;0.80;;;;;;;2.94;100.00;98981.31;4881327;29;20056;-86
2020/12/17 02:06:46;;;;;;;1.75;0.90;;;;;;;3.05;100.00;98984.44;4869454;29;20093;-87
2020/12/17 02:09:49;;;;;;;0.98;0.82;;;;;;;3.16;100.00;98988.81;4869729;29;20108;-87
2020/12/17 02:12:52;;;;;;;4.38;1.08;;;;;;;3.22;100.00;98992.53;4869491;29;20048;-86
2020/12/17 02:15:55;;;;;;;6.03;1.75;;;;;;;3.29;100.00;99006.06;4881043;29;20059;-87
2020/12/17 02:18:58;;;;;;;1.48;0.85;;;;;;;3.32;100.00;98999.63;4881260;29;20052;-87
2020/12/17 02:22:01;;;;;;;4.53;1.42;;;;;;;3.32;100.00;99007.88;4869254;29;20097;-87
2020/12/17 02:25:06;;;;;;;4.35;1.33;;;;;;;3.37;100.00;99013.59;4880863;29;20104;-87
2020/12/17 02:28:09;;;;;;;2.83;0.95;;;;;;;3.41;100.00;99003.22;4869340;29;20109;-87
2020/12/17 02:31:12;;;;;;;1.30;0.82;;;;;;;3.48;100.00;99018.72;4869385;29;20562;-87
2020/12/17 02:34:15;;;;;;;3.25;1.05;;;;;;;3.54;100.00;99022.44;4868984;29;20052;-87
2020/12/17 02:37:18;;;;;;;9.07;1.17;;;;;;;3.58;100.00;99014.81;4880784;29;20043;-87
2020/12/17 02:40:21;;;;;;;2.13;0.95;;;;;;;3.61;100.00;99017.44;4868722;29;20048;-86
2020/12/17 02:43:23;;;;;;;3.50;0.98;;;;;;;3.69;100.00;99018.72;4880221;29;20447;-87
2020/12/17 02:46:26;;;;;;;2.67;0.75;;;;;;;3.80;100.00;99012.81;4868927;29;20056;-87
2020/12/17 02:49:29;;;;;;;3.97;1.05;;;;;;;3.87;100.00;99020.81;4868755;29;20055;-87
2020/12/17 02:52:32;;;;;;;4.18;1.30;;;;;;;3.89;100.00;99021.13;4868663;29;20088;-87
2020/12/17 02:55:36;;;;;;;4.40;1.25;;;;;;;3.83;100.00;99011.94;4868546;29;20451;-87
2020/12/17 02:58:40;;;;;;;2.05;1.00;;;;;;;3.84;100.00;99018.94;4868886;29;20136;-87
2020/12/17 03:01:43;;;;;;;6.90;1.35;;;;;;;3.76;100.00;99029.47;4868719;29;20128;-87
2020/12/17 03:04:46;;;;;;;2.13;0.57;;;;;;;3.74;100.00;99020.91;4868676;29;20047;-87
2020/12/17 03:07:49;;;;;;;1.73;1.63;;;;;;;3.69;100.00;99023.44;4868518;29;20127;-87
2020/12/17 03:10:53;;;;;;;1.27;0.77;;;;;;;3.58;100.00;99017.56;4867883;29;20409;-88
2020/12/17 03:13:56;;;;;;;10.02;1.98;;;;;;;3.44;100.00;99021.63;4868899;29;20177;-87
2020/12/17 03:16:59;;;;;;;6.32;1.25;;;;;;;3.33;100.00;99023.19;4868624;29;20087;-87
2020/12/17 03:20:04;;;;;;;4.45;1.00;;;;;;;3.37;100.00;99018.34;4868956;29;20101;-87
2020/12/17 03:23:07;;;;;;;0.57;0.55;;;;;;;3.39;100.00;99032.41;4867853;29;20078;-87
2020/12/17 03:26:11;;;;;;;1.27;0.32;;;;;;;3.38;100.00;99030.88;4868276;29;20048;-87
2020/12/17 03:29:13;;;;;;;0.30;0.30;;;;;;;3.27;100.00;99025.72;4868535;29;20454;-88
2020/12/17 03:32:16;;;;;;;0.52;0.20;;;;;;;3.17;100.00;99026.88;4880130;29;20067;-88
2020/12/17 03:35:19;;;;;;;4.03;2.25;;;;;;;3.03;100.00;99030.88;4868445;29;20051;-87
2020/12/17 03:38:23;;;;;;;4.00;0.90;;;;;;;2.96;100.00;99038.63;4867969;29;20048;-87
2020/12/17 03:41:25;;;;;;;2.03;1.40;;;;;;;2.87;100.00;99036.56;4878910;29;20044;-87
2020/12/17 03:44:28;;;;;;;0.32;0.28;;;;;;;2.82;100.00;99039.84;4879010;29;20105;-87
2020/12/17 03:47:32;;;;;;;2.05;0.70;;;;;;;2.79;100.00;99040.75;4879779;29;20410;-87
2020/12/17 03:50:35;;;;;;;0.47;0.47;;;;;;;2.75;100.00;99055.81;4879684;29;20052;-87
2020/12/17 03:53:37;;;;;;;1.85;0.32;;;;;;;2.70;100.00;99042.63;4879020;29;20458;-87
2020/12/17 03:56:41;;;;;;;2.45;1.25;;;;;;;2.74;100.00;99054.28;4878848;29;20060;-87
2020/12/17 03:59:44;;;;;;;1.13;0.38;;;;;;;2.76;100.00;99055.38;4878761;29;20096;-87
2020/12/17 04:02:47;;;;;;;1.15;0.50;;;;;;;2.77;100.00;99053.41;4879511;29;20414;-87
2020/12/17 04:05:49;;;;;;;1.35;0.65;;;;;;;2.75;100.00;99050.31;4879360;29;20089;-88
2020/12/17 04:08:52;;;;;;;1.85;0.45;;;;;;;2.66;100.00;99047.47;4878987;29;20044;-87
2020/12/17 04:11:55;;;;;;;3.50;0.68;;;;;;;2.57;100.00;99061.88;4878665;29;20097;-87
2020/12/17 04:14:58;;;;;;;0.45;0.45;;;;;;;2.49;100.00;99055.06;4878915;29;20081;-87
2020/12/17 04:18:01;;;;;;;6.57;2.08;;;;;;;2.38;100.00;99054.63;4878941;29;20060;-87
2020/12/17 04:21:04;;;;;;;0.30;0.30;;;;;;;2.34;100.00;99056.72;4880584;29;20055;-87
2020/12/17 04:24:07;;;;;;;15.07;1.20;;;;;;;2.34;100.00;99055.97;4882274;29;20092;-87
2020/12/17 04:27:10;;;;;;;1.52;0.75;;;;;;;2.28;100.00;99058.47;4882182;29;20056;-87
2020/12/17 04:30:12;;;;;;;3.53;0.65;;;;;;;2.23;100.00;99065.28;4882968;29;20422;-87
2020/12/17 04:33:15;;;;;;;0.45;0.35;;;;;;;2.18;100.00;99060.34;4883047;29;20171;-88
2020/12/17 04:36:18;;;;;;;2.38;0.38;;;;;;;2.21;100.00;99045.72;4882459;29;20106;-88
2020/12/17 04:39:22;;;;;;;0.40;0.40;;;;;;;2.23;100.00;99053.53;4881519;29;20044;-87
2020/12/17 04:42:26;;;;;;;6.82;0.60;;;;;;;2.25;100.00;99059.38;4871378;29;20566;-86
2020/12/17 04:45:30;;;;;;;4.57;0.90;;;;;;;2.28;100.00;99061.22;4871319;29;20104;-87
2020/12/17 04:48:33;;;;;;;0.50;0.40;;;;;;;2.36;100.00;99062.53;4871165;29;20052;-87
2020/12/17 04:51:36;;;;;;;3.17;0.55;;;;;;;2.51;100.00;99065.63;4882670;29;20068;-86
2020/12/17 04:54:40;;;;;;;2.63;0.50;;;;;;;2.52;100.00;99069.91;4871235;29;20405;-87
2020/12/17 04:57:45;;;;;;;6.55;0.57;;;;;;;2.50;100.00;99081.34;4870946;29;20048;-87
2020/12/17 05:00:53;;;;;;;1.75;0.70;;;;;;;2.46;100.00;99072.44;4870919;29;20074;-87
2020/12/17 05:03:57;;;;;;;1.13;0.47;;;;;;;2.45;100.00;99073.63;4871013;29;20525;-88
2020/12/17 05:07:03;;;;;;;3.22;1.27;;;;;;;2.39;100.00;99078.16;4870889;29;20052;-87
2020/12/17 05:10:11;;;;;;;1.85;0.80;;;;;;;2.32;100.00;99083.84;4870699;29;20409;-87
2020/12/17 05:13:17;;;;;;;0.57;0.40;;;;;;;2.24;100.00;99085.28;4882495;29;20044;-88
2020/12/17 05:16:20;;;;;;;1.02;0.77;;;;;;;2.25;100.00;99090.31;4871033;29;20409;-86
2020/12/17 05:19:27;;;;;;;0.30;0.20;;;;;;;2.26;100.00;99085.59;4870514;29;20124;-88
2020/12/17 05:22:30;;;;;;;0.60;0.60;;;;;;;2.16;100.00;99098.47;4882191;29;20048;-87
2020/12/17 05:25:33;;;;;;;0.35;0.25;;;;;;;2.11;100.00;99098.22;4871130;29;20097;-89
2020/12/17 05:28:37;;;;;;;0.30;0.30;;;;;;;2.07;100.00;99100.31;4871353;29;20093;-88
2020/12/17 05:31:40;;;;;;;3.97;0.52;;;;;;;2.03;100.00;99099.63;4870406;29;20120;-87
2020/12/17 05:34:43;;;;;;;1.67;0.40;;;;;;;2.05;100.00;99109.00;4870505;29;20048;-87
2020/12/17 05:37:46;;;;;;;3.00;0.80;;;;;;;2.05;100.00;99114.47;4881151;29;20077;-88
2020/12/17 05:40:51;;;;;;;0.47;0.47;;;;;;;2.01;100.00;99113.03;4875662;29;20084;-87
2020/12/17 05:43:54;;;;;;;0.30;0.28;;;;;;;1.93;100.00;99128.16;4877611;29;20402;-87
2020/12/17 05:46:57;;;;;;;3.63;0.68;;;;;;;1.88;100.00;99128.72;4875585;29;20122;-87
2020/12/17 05:50:00;;;;;;;1.25;0.50;;;;;;;1.81;100.00;99124.19;4872340;29;20797;-87
2020/12/17 05:53:03;;;;;;;4.10;0.50;;;;;;;1.74;100.00;99127.13;4878580;29;20099;-87
2020/12/17 05:56:07;;;;;;;0.70;0.70;;;;;;;1.68;100.00;99125.34;4874479;29;20051;-89
2020/12/17 05:59:10;;;;;;;1.50;0.68;;;;;;;1.63;100.00;99125.84;4883115;29;20063;-88
2020/12/17 06:02:20;;;;;;;0.52;0.52;;;;;;;1.61;100.00;99123.56;4892044;29;20104;-89
2020/12/17 06:05:27;;;;;;;1.23;0.93;;;;;;;1.60;100.00;99126.72;4889383;29;20055;-89
2020/12/17 06:08:34;;;;;;;4.38;0.93;;;;;;;1.58;100.00;99137.38;4889041;29;20043;-89
2020/12/17 06:11:37;;;;;;;0.10;0.10;;;;;;;1.57;100.00;99135.81;4888940;29;20048;-89
2020/12/17 06:14:41;;;;;;;0.32;0.32;;;;;;;1.62;100.00;99140.78;4888890;29;20180;-89
2020/12/17 06:17:49;;;;;;;0.20;0.20;;;;;;;1.64;100.00;99150.13;4888878;29;20094;-89
2020/12/17 06:20:53;;;;;;;1.23;0.65;;;;;;;1.63;100.00;99161.53;4872838;29;20056;-87
2020/12/17 06:23:57;;;;;;;0.30;0.30;;;;;;;1.53;100.00;99150.41;4888624;29;20095;-87
2020/12/17 06:27:08;;;;;;;0.88;0.88;;;;;;;1.39;100.00;99156.25;4900741;29;20055;-87
2020/12/17 06:30:14;;;;;;;2.38;2.17;;;;;;;1.27;100.00;99162.44;4900436;29;20056;-88
2020/12/17 06:33:17;;;;;;;2.10;1.73;;;;;;;1.20;100.00;99159.88;4888745;29;20047;-89
2020/12/17 06:36:31;;;;;;;2.67;1.00;;;;;;;1.16;100.00;99163.91;4899690;29;20112;-86
2020/12/17 06:39:34;;;;;;;1.73;0.82;;;;;;;1.12;100.00;99166.75;4880431;29;20044;-87
2020/12/17 06:42:38;;;;;;;2.63;1.10;;;;;;;1.05;100.00;99169.66;4862115;29;20063;-86
2020/12/17 06:45:41;;;;;;;4.38;1.33;;;;;;;1.05;100.00;99180.63;4850482;29;20060;-87
2020/12/17 06:48:46;;;;;;;3.38;1.30;;;;;;;1.07;100.00;99189.19;4878907;29;20104;-85
2020/12/17 06:52:00;;;;;;;0.47;0.47;;;;;;;1.07;100.00;99191.91;4868591;29;20133;-85
2020/12/17 06:55:04;;;;;;;0.63;0.57;;;;;;;1.10;100.00;99193.81;4883418;29;20520;-81
2020/12/17 06:58:16;;;;;;;1.55;1.33;;;;;;;1.07;100.00;99194.66;4882863;29;20459;-82
2020/12/17 07:01:26;;;;;;;0.50;0.50;;;;;;;1.01;100.00;99201.84;4885229;29;20051;-83
2020/12/17 07:04:49;;;;;;;2.08;0.32;;;;;;;0.99;100.00;99208.97;4882717;29;20525;-89
2020/12/17 07:07:52;;;;;;;0.47;0.30;;;;;;;0.97;100.00;99223.09;4881120;29;20074;-87
2020/12/17 07:10:58;;;;;;;1.85;0.52;;;;;;;0.95;100.00;99219.25;4869716;29;20056;-86
2020/12/17 07:14:07;;;;;;;0.20;0.20;;;;;;;0.97;100.00;99223.09;4867818;29;20119;-85
2020/12/17 07:17:10;;;;;;;1.52;1.20;;;;;;;0.93;100.00;99227.91;4879580;29;20116;-87
2020/12/17 07:20:29;;;;;;;4.97;0.88;;;;;;;0.90;100.00;99227.97;4879308;29;20060;-85
2020/12/17 07:23:34;;;;;;;2.08;1.17;;;;;;;0.88;100.00;99231.13;4879823;29;20060;-87
2020/12/17 07:26:37;;;;;;;7.22;1.10;;;;;;;0.85;100.00;99240.19;4879885;29;20410;-87
2020/12/17 07:29:47;;;;;;;7.88;0.65;;;;;;;0.86;100.00;99249.97;4867557;29;20099;-86
2020/12/17 07:32:49;;;;;;;0.30;0.30;;;;;;;0.83;100.00;99248.06;4867944;29;20048;-87
2020/12/17 07:35:52;;;;;;;0.40;0.40;;;;;;;0.78;100.00;99249.34;4868303;29;20079;-87
2020/12/17 07:39:06;;;;;;;0.60;0.60;;;;;;;0.75;100.00;99258.44;4868396;29;20056;-88
2020/12/17 07:42:10;;;;;;;1.25;1.08;;;;;;;0.65;100.00;99251.19;4868426;29;20466;-88
2020/12/17 07:45:15;;;;;;;0.30;0.30;;;;;;;0.58;100.00;99258.78;4879919;29;20105;-87
2020/12/17 07:48:39;;;;;;;1.95;0.88;;;;;;;0.51;100.00;99262.44;4868452;29;20532;-88
2020/12/17 07:51:43;;;;;;;3.17;1.15;;;;;;;0.48;100.00;99267.97;4879219;29;20060;-88
2020/12/17 07:54:46;;;;;;;6.22;0.75;;;;;;;0.42;100.00;99277.88;4867041;29;20056;-85
2020/12/17 07:57:49;;;;;;;3.53;1.10;;;;;;;0.39;100.00;99270.53;4870263;29;20462;-86
2020/12/17 08:00:54;;;;;;;3.17;1.05;;;;;;;0.38;100.00;99274.44;4881250;29;20105;-83
2020/12/17 08:03:58;;;;;;;0.55;0.55;;;;;;;0.35;100.00;99275.28;4881962;29;20136;-91
2020/12/17 08:07:10;;;;;;;1.13;1.08;;;;;;;0.32;100.00;99282.41;4894363;29;20461;-88
2020/12/17 08:10:15;;;;;;;6.97;0.85;;;;;;;0.30;100.00;99284.00;4887226;29;20787;-87
2020/12/17 08:13:19;;;;;;;0.43;0.43;;;;;;;0.30;100.00;99301.22;4869400;29;20044;-85
2020/12/17 08:16:22;;;;;;;0.98;0.25;;;;;;;0.34;100.00;99301.91;4876656;29;20499;-87
2020/12/17 08:19:25;;;;;;;3.40;0.75;;;;;;;0.40;100.00;99304.94;4874053;29;20059;-86
2020/12/17 08:22:29;;;;;;;6.18;1.02;;;;;;;0.51;100.00;99305.50;4877227;29;20450;-85
2020/12/17 08:25:32;;;;;;;2.05;1.05;;;;;;;0.56;100.00;99297.53;4885664;29;20056;-86
2020/12/17 08:28:37;;;;;;;7.90;0.85;;;;;;;0.64;100.00;99306.41;4870950;29;20459;-86
2020/12/17 08:31:40;;;;;;;2.05;1.08;;;;;;;0.87;100.00;99311.81;4870669;29;20056;-85
2020/12/17 08:34:53;;;;;;;3.40;1.23;;;;;;;1.01;100.00;99322.47;4881354;29;20048;-84
2020/12/17 08:37:56;;;;;;;1.35;0.95;;;;;;;1.12;100.00;99325.78;4869919;29;20418;-84
2020/12/17 08:41:01;;;;;;;0.22;0.22;;;;;;;1.32;100.00;99326.47;4880094;29;20052;-85
2020/12/17 08:44:05;;;;;;;0.30;0.30;;;;;;;1.48;100.00;99334.75;4882285;29;20101;-85
2020/12/17 08:47:14;;;;;;;1.55;0.73;;;;;;;1.61;100.00;99336.81;4882128;29;20117;-85
2020/12/17 08:50:18;;;;;;;9.20;1.17;;;;;;;1.73;100.00;99338.88;4870764;29;20409;-84
2020/12/17 08:53:27;;;;;;;2.13;0.55;;;;;;;1.96;100.00;99336.72;4870548;29;20048;-85
2020/12/17 08:56:31;;;;;;;1.30;0.68;;;;;;;2.20;100.00;99345.53;4870167;29;20060;-85
2020/12/17 08:59:35;;;;;;;0.10;0.10;;;;;;;2.34;100.00;99347.91;4870613;29;20181;-86
2020/12/17 09:02:40;;;;;;;0.28;0.28;;;;;;;2.45;100.00;99356.66;4870662;29;20044;-85
2020/12/17 09:05:43;;;;;;;0.75;0.30;;;;;;;2.57;100.00;99375.19;4870381;29;20131;-86
2020/12/17 09:08:46;;;;;;;0.13;0.13;;;;;;;2.64;100.00;99374.22;4870124;29;20573;-85
2020/12/17 09:11:49;;;;;;;0.20;0.20;;;;;;;2.68;100.00;99383.94;4881824;29;20056;-85
2020/12/17 09:14:53;;;;;;;3.33;0.43;;;;;;;2.72;100.00;99381.06;4870555;29;20167;-86
2020/12/17 09:18:16;;;;;;;5.05;0.90;;;;;;;2.82;100.00;99386.28;4870037;29;20056;-86
2020/12/17 09:21:19;;;;;;;1.85;0.40;;;;;;;2.89;100.00;99391.59;4870092;29;20060;-86
2020/12/17 09:24:31;;;;;;;0.95;0.70;;;;;;;2.89;100.00;99386.09;4882161;29;20051;-86
2020/12/17 09:27:36;;;;;;;0.47;0.28;;;;;;;2.88;100.00;99395.53;4870716;29;20068;-86
2020/12/17 09:30:41;;;;;;;2.30;0.20;;;;;;;2.84;100.00;99405.09;4870242;29;20139;-86
2020/12/17 09:33:44;;;;;;;1.58;0.50;;;;;;;2.86;100.00;99397.16;4881815;29;20118;-86
2020/12/17 09:37:06;;;;;;;2.30;0.77;;;;;;;2.85;100.00;99407.41;4870063;29;20048;-86
2020/12/17 09:40:09;;;;;;;;;;;;;;;2.94;100.00;99409.53;4870159;29;20101;-85
2020/12/17 09:43:14;;;;;;;0.10;0.00;;;;;;;2.98;100.00;99418.47;4860785;29;20036;-84
2020/12/17 09:46:17;;;;;;;0.85;0.35;;;;;;;3.00;100.00;99418.78;4850919;29;20060;-87
2020/12/17 09:49:28;;;;;;;0.28;0.28;;;;;;;2.94;100.00;99423.28;4851009;29;20109;-87
2020/12/17 09:52:31;;;;;;;1.45;0.35;;;;;;;2.88;100.00;99434.03;4850821;29;20105;-87
2020/12/17 09:55:34;;;;;;;0.52;0.20;;;;;;;2.92;100.00;99422.94;4860900;29;20052;-86
2020/12/17 09:58:42;;;;;;;0.20;0.20;;;;;;;3.04;100.00;99438.72;4870072;29;20060;-87
2020/12/17 10:01:45;;;;;;;0.93;0.93;;;;;;;3.17;100.00;99438.75;4869824;29;20089;-87
2020/12/17 10:04:49;;;;;;;0.32;0.17;;;;;;;3.20;100.00;99437.91;4881286;29;20048;-88
2020/12/17 10:07:51;;;;;;;0.10;0.10;;;;;;;3.33;100.00;99439.47;4850897;29;20044;-87
2020/12/17 10:10:54;;;;;;;0.50;0.40;;;;;;;3.41;100.00;99443.56;4850790;29;20057;-87
2020/12/17 10:13:57;;;;;;;2.72;0.75;;;;;;;3.48;100.00;99442.59;4850953;29;20148;-86
2020/12/17 10:17:01;;;;;;;0.85;0.50;;;;;;;3.50;100.00;99440.94;4850223;29;20076;-85
2020/12/17 10:20:10;;;;;;;1.00;0.38;;;;;;;3.48;100.00;99454.38;4862088;29;20044;-86
2020/12/17 10:23:12;;;;;;;0.38;0.38;;;;;;;3.46;100.00;99450.50;4850528;29;20052;-86
2020/12/17 10:26:15;;;;;;;0.30;0.30;;;;;;;3.48;100.00;99459.88;4849773;29;20044;-86
2020/12/17 10:29:18;;;;;;;0.28;0.28;;;;;;;3.54;100.00;99462.84;4850268;29;20116;-85
2020/12/17 10:32:21;;;;;;;0.20;0.20;;;;;;;3.63;100.00;99471.25;4850329;29;20068;-84
2020/12/17 10:35:25;;;;;;;0.75;0.40;;;;;;;3.71;100.00;99461.56;4861623;29;20405;-86
2020/12/17 10:38:28;;;;;;;0.25;0.20;;;;;;;3.73;100.00;99476.44;4851776;29;20136;-85
2020/12/17 10:41:30;;;;;;;0.68;0.68;;;;;;;3.74;100.00;99471.72;4868584;29;20051;-86
2020/12/17 10:44:36;;;;;;;0.15;0.15;;;;;;;3.80;100.00;99483.72;4868423;29;20119;-86
2020/12/17 10:47:39;;;;;;;0.63;0.20;;;;;;;3.88;100.00;99487.78;4868522;29;20128;-85
2020/12/17 10:50:42;;;;;;;0.65;0.65;;;;;;;3.94;100.00;99477.81;4868558;29;20075;-82
2020/12/17 10:53:45;;;;;;;0.22;0.22;;;;;;;3.98;100.00;99481.22;4879699;29;20067;-84
2020/12/17 10:56:48;;;;;;;0.38;0.22;;;;;;;4.18;100.00;99484.50;4879562;29;20060;-84
2020/12/17 10:59:50;;;;;;;1.02;0.57;;;;;;;4.32;100.00;99488.81;4879468;29;20463;-84
2020/12/17 11:02:53;;;;;;;11.60;0.52;;;;;;;4.43;100.00;99487.25;4879695;29;20101;-83
2020/12/17 11:05:57;;;;;;;0.40;0.40;;;;;;;4.43;100.00;99484.50;4867700;29;20063;-84
2020/12/17 11:09:00;;;;;;;0.10;0.10;;;;;;;4.50;100.00;99492.53;4879356;29;20692;-83
2020/12/17 11:12:03;;;;;;;2.58;0.55;;;;;;;4.53;100.00;99499.91;4868006;29;20512;-83
2020/12/17 11:15:06;;;;;;;4.45;0.73;;;;;;;4.52;100.00;99481.84;4867858;29;20052;-83
2020/12/17 11:18:10;;;;;;;0.95;0.30;;;;;;;4.54;100.00;99490.44;4879205;29;20072;-84
2020/12/17 11:21:20;;;;;;;0.57;0.38;;;;;;;4.68;100.00;99493.97;4878998;29;20048;-82
2020/12/17 11:24:23;;;;;;;0.13;0.13;;;;;;;4.66;100.00;99480.59;4879286;29;20052;-82
2020/12/17 11:27:26;;;;;;;0.10;0.10;;;;;;;4.69;100.00;99484.44;4879245;29;20566;-82
2020/12/17 11:30:29;;;;;;;1.20;0.15;;;;;;;4.73;100.00;99485.09;4878202;29;20056;-82
2020/12/17 11:33:32;;;;;;;5.28;0.55;;;;;;;4.73;100.00;99471.31;4878570;29;20528;-82
2020/12/17 11:36:35;;;;;;;0.47;0.40;;;;;;;4.75;100.00;99488.19;4867692;29;20047;-84
2020/12/17 11:39:38;;;;;;;0.70;0.40;;;;;;;4.81;100.00;99483.66;4870369;29;20517;-84
2020/12/17 11:42:43;;;;;;;0.50;0.47;;;;;;;4.85;100.00;99481.56;4878914;29;20069;-83
2020/12/17 11:45:46;;;;;;;1.15;0.45;;;;;;;4.88;100.00;99491.69;4877694;29;20044;-84
2020/12/17 11:48:49;;;;;;;2.50;0.88;;;;;;;4.96;100.00;99493.00;4878191;29;20206;-84
2020/12/17 11:51:53;;;;;;;6.22;0.85;;;;;;;5.00;100.00;99488.13;4878174;29;20137;-83
2020/12/17 11:54:59;;;;;;;0.80;0.55;;;;;;;5.00;100.00;99482.63;4878123;29;20044;-84
2020/12/17 11:58:02;;;;;;;6.20;0.82;;;;;;;5.00;100.00;99482.63;4878815;29;20056;-85
2020/12/17 12:01:06;;;;;;;9.85;1.05;;;;;;;5.04;100.00;99483.25;4878704;29;20495;-85
2020/12/17 12:04:10;;;;;;;1.83;0.38;;;;;;;5.09;100.00;99485.47;4878705;29;20450;-87
2020/12/17 12:07:13;;;;;;;0.47;0.30;;;;;;;5.09;100.00;99479.94;4877861;29;20108;-85
2020/12/17 12:10:15;;;;;;;21.08;0.55;;;;;;;5.13;100.00;99484.09;4878089;29;20048;-85
2020/12/17 12:13:18;;;;;;;0.65;0.55;;;;;;;5.12;100.00;99485.31;4878329;29;20569;-86
2020/12/17 12:16:23;;;;;;;3.55;0.73;;;;;;;5.18;100.00;99477.22;4878905;29;20508;-86
2020/12/17 12:19:26;;;;;;;0.45;0.20;;;;;;;5.27;100.00;99467.03;4879809;29;20048;-84
2020/12/17 12:22:29;;;;;;;9.73;0.43;;;;;;;5.35;100.00;99465.56;4881428;29;20462;-84
2020/12/17 12:25:35;;;;;;;0.20;0.20;;;;;;;5.45;100.00;99460.09;4880110;29;20068;-83
2020/12/17 12:28:39;;;;;;;1.08;0.43;;;;;;;5.56;100.00;99461.25;4893346;29;20105;-84
2020/12/17 12:31:42;;;;;;;0.20;0.10;;;;;;;5.61;100.00;99460.66;4883603;29;20080;-86
2020/12/17 12:34:45;;;;;;;2.53;1.33;;;;;;;5.65;100.00;99455.00;4880174;29;20064;-85
2020/12/17 12:37:48;;;;;;;2.38;0.80;;;;;;;5.60;100.00;99455.59;4879007;29;20128;-85
2020/12/17 12:40:51;;;;;;;0.77;0.70;;;;;;;5.64;100.00;99464.50;4851615;29;20073;-85
2020/12/17 12:43:54;;;;;;;0.17;0.17;;;;;;;5.69;100.00;99452.88;4855524;29;20056;-86
2020/12/17 12:46:57;;;;;;;2.15;0.35;;;;;;;5.81;100.00;99452.78;4868002;29;20082;-86
2020/12/17 12:50:00;;;;;;;1.50;0.28;;;;;;;5.87;100.00;99464.03;4863811;29;20048;-80
2020/12/17 12:53:03;;;;;;;0.28;0.10;;;;;;;5.88;100.00;99460.06;4861239;29;20101;-80
2020/12/17 12:56:06;;;;;;;1.55;0.32;;;;;;;5.91;100.00;99457.16;4865502;29;20064;-81
2020/12/17 12:59:09;;;;;;;0.10;0.10;;;;;;;6.07;100.00;99445.88;4872072;29;20447;-81
2020/12/17 13:02:12;;;;;;;0.25;0.25;;;;;;;6.19;100.00;99444.25;4863565;29;20055;-81
2020/12/17 13:05:15;;;;;;;1.73;0.47;;;;;;;6.27;100.00;99439.19;4863621;29;20140;-80
2020/12/17 13:08:19;;;;;;;2.50;0.80;;;;;;;6.30;100.00;99452.09;4862859;29;20566;-83
2020/12/17 13:11:23;;;;;;;0.32;0.28;;;;;;;6.36;100.00;99444.75;4863210;29;20391;-82
2020/12/17 13:14:27;;;;;;;0.90;0.40;;;;;;;6.40;100.00;99448.13;4862839;29;20398;-81
2020/12/17 13:17:30;;;;;;;0.17;0.10;;;;;;;6.39;100.00;99441.06;4862893;29;20048;-82
2020/12/17 13:20:33;;;;;;;0.80;0.10;;;;;;;6.41;100.00;99430.31;4862908;29;20105;-80
2020/12/17 13:23:36;;;;;;;3.05;0.85;;;;;;;6.43;100.00;99436.16;4862459;29;20052;-81
2020/12/17 13:26:39;;;;;;;9.35;1.27;;;;;;;6.45;100.00;99434.50;4849970;29;20763;-80
2020/12/17 13:29:41;;;;;;;4.80;1.00;;;;;;;6.45;100.00;99447.53;4862390;29;20060;-80
2020/12/17 13:32:45;;;;;;;7.00;0.88;;;;;;;6.46;100.00;99443.53;4862876;29;20467;-81
2020/12/17 13:35:48;;;;;;;4.47;0.85;;;;;;;6.47;100.00;99447.84;4863135;29;20052;-84
2020/12/17 13:38:51;;;;;;;7.53;0.52;;;;;;;6.47;100.00;99436.78;4868814;29;20052;-84
2020/12/17 13:41:54;;;;;;;0.73;0.43;;;;;;;6.52;100.00;99436.94;4890750;29;20114;-84
2020/12/17 13:44:57;;;;;;;1.23;0.45;;;;;;;6.53;100.00;99432.19;4876049;29;20066;-84
2020/12/17 13:48:00;;;;;;;1.77;0.68;;;;;;;6.51;100.00;99437.41;4874682;29;20055;-83
2020/12/17 13:51:05;;;;;;;0.70;0.20;;;;;;;6.52;100.00;99438.97;4886153;29;20096;-83
2020/12/17 13:54:08;;;;;;;6.70;0.77;;;;;;;6.52;100.00;99433.44;4881093;29;20136;-82
2020/12/17 13:57:11;;;;;;;0.47;0.15;;;;;;;6.53;100.00;99429.41;4870905;29;20072;-85
2020/12/17 14:00:14;;;;;;;0.45;0.45;;;;;;;6.57;100.00;99432.81;4881203;29;20069;-86
2020/12/17 14:03:16;;;;;;;3.10;1.00;;;;;;;6.57;100.00;99424.50;4881093;29;20608;-86
2020/12/17 14:06:21;;;;;;;1.13;0.68;;;;;;;6.58;100.00;99432.34;4880803;29;20124;-86
2020/12/17 14:09:24;;;;;;;0.45;0.28;;;;;;;6.58;100.00;99432.34;4881340;29;20048;-84
2020/12/17 14:12:27;;;;;;;0.40;0.17;;;;;;;6.59;100.00;99428.34;4872603;29;20694;-85
2020/12/17 14:15:29;;;;;;;1.10;0.55;;;;;;;6.55;100.00;99427.75;4873328;29;20052;-85
2020/12/17 14:18:32;;;;;;;15.85;0.73;;;;;;;6.56;100.00;99434.03;4882257;29;20051;-83
2020/12/17 14:21:35;;;;;;;1.48;0.20;;;;;;;6.56;100.00;99428.50;4882250;29;20509;-84
2020/12/17 14:24:38;;;;;;;2.40;0.82;;;;;;;6.54;100.00;99431.72;4879647;29;20105;-83
2020/12/17 14:27:41;;;;;;;2.33;0.20;;;;;;;6.49;100.00;99428.81;4860932;29;20057;-84